sensor_id;sensor_type;location;lat;lon;timestamp;P1;durP1;ratioP1;P2;durP2;ratioP2
11422;SDS011;5768;51.476;7.210;2024-01-15T00:01:41;14.73;;;11.17;;
11422;SDS011;5768;51.476;7.210;2024-01-15T00:06:44;20.20;;;15.27;;
11422;SDS011;5768;51.476;7.210;2024-01-15T00:11:48;13.80;;;9.80;;
11422;SDS011;5768;51.476;7.210;2024-01-15T00:16:50;17.17;;;11.60;;
11422;SDS011;5768;51.476;7.210;2024-01-15T00:21:55;19.63;;;12.70;;
11422;SDS011;5768;51.476;7.210;2024-01-15T00:26:58;22.07;;;13.90;;
11422;SDS011;5768;51.476;7.210;2024-01-15T00:32:01;11.50;;;7.57;;
11422;SDS011;5768;51.476;7.210;2024-01-15T00:37:03;19.50;;;14.27;;
11422;SDS011;5768;51.476;7.210;2024-01-15T00:42:08;15.10;;;10.17;;
11422;SDS011;5768;51.476;7.210;2024-01-15T00:47:10;14.60;;;9.63;;
11422;SDS011;5768;51.476;7.210;2024-01-15T00:52:12;15.97;;;11.17;;
11422;SDS011;5768;51.476;7.210;2024-01-15T00:57:16;11.20;;;7.47;;
11422;SDS011;5768;51.476;7.210;2024-01-15T01:02:19;17.40;;;12.67;;
11422;SDS011;5768;51.476;7.210;2024-01-15T01:07:21;12.07;;;8.50;;
11422;SDS011;5768;51.476;7.210;2024-01-15T01:12:25;17.10;;;11.80;;
11422;SDS011;5768;51.476;7.210;2024-01-15T01:17:27;9.40;;;7.40;;
11422;SDS011;5768;51.476;7.210;2024-01-15T01:22:30;11.47;;;8.20;;
11422;SDS011;5768;51.476;7.210;2024-01-15T01:27:34;15.53;;;10.47;;
11422;SDS011;5768;51.476;7.210;2024-01-15T01:32:36;16.67;;;9.70;;
11422;SDS011;5768;51.476;7.210;2024-01-15T01:37:39;12.93;;;10.60;;
11422;SDS011;5768;51.476;7.210;2024-01-15T01:42:45;15.67;;;10.10;;
11422;SDS011;5768;51.476;7.210;2024-01-15T01:47:50;12.03;;;8.43;;
11422;SDS011;5768;51.476;7.210;2024-01-15T01:52:52;15.67;;;10.93;;
11422;SDS011;5768;51.476;7.210;2024-01-15T01:57:56;17.67;;;11.90;;
11422;SDS011;5768;51.476;7.210;2024-01-15T02:02:59;14.37;;;10.57;;
11422;SDS011;5768;51.476;7.210;2024-01-15T02:08:03;12.13;;;9.13;;
11422;SDS011;5768;51.476;7.210;2024-01-15T02:13:07;10.40;;;6.83;;
11422;SDS011;5768;51.476;7.210;2024-01-15T02:18:09;15.33;;;8.27;;
11422;SDS011;5768;51.476;7.210;2024-01-15T02:23:14;14.10;;;10.17;;
11422;SDS011;5768;51.476;7.210;2024-01-15T02:28:17;11.20;;;6.83;;
11422;SDS011;5768;51.476;7.210;2024-01-15T02:33:19;9.83;;;6.17;;
11422;SDS011;5768;51.476;7.210;2024-01-15T02:38:23;9.60;;;6.53;;
11422;SDS011;5768;51.476;7.210;2024-01-15T02:43:25;12.50;;;8.13;;
11422;SDS011;5768;51.476;7.210;2024-01-15T02:48:28;13.17;;;8.17;;
11422;SDS011;5768;51.476;7.210;2024-01-15T02:53:31;7.80;;;5.13;;
11422;SDS011;5768;51.476;7.210;2024-01-15T02:58:34;8.87;;;5.60;;
11422;SDS011;5768;51.476;7.210;2024-01-15T03:03:36;12.47;;;8.93;;
11422;SDS011;5768;51.476;7.210;2024-01-15T03:08:39;10.87;;;8.53;;
11422;SDS011;5768;51.476;7.210;2024-01-15T03:13:42;11.00;;;7.30;;
11422;SDS011;5768;51.476;7.210;2024-01-15T03:18:44;8.70;;;6.00;;
11422;SDS011;5768;51.476;7.210;2024-01-15T03:23:47;11.83;;;7.83;;
11422;SDS011;5768;51.476;7.210;2024-01-15T03:28:50;10.70;;;7.70;;
11422;SDS011;5768;51.476;7.210;2024-01-15T03:33:52;13.47;;;7.80;;
11422;SDS011;5768;51.476;7.210;2024-01-15T03:38:59;11.33;;;7.50;;
11422;SDS011;5768;51.476;7.210;2024-01-15T03:44:01;4.77;;;4.27;;
11422;SDS011;5768;51.476;7.210;2024-01-15T03:49:07;10.43;;;5.87;;
11422;SDS011;5768;51.476;7.210;2024-01-15T03:54:10;8.00;;;5.87;;
11422;SDS011;5768;51.476;7.210;2024-01-15T03:59:13;6.60;;;4.97;;
11422;SDS011;5768;51.476;7.210;2024-01-15T04:04:17;6.37;;;4.17;;
11422;SDS011;5768;51.476;7.210;2024-01-15T04:09:21;7.00;;;5.20;;
11422;SDS011;5768;51.476;7.210;2024-01-15T04:14:24;4.67;;;3.33;;
11422;SDS011;5768;51.476;7.210;2024-01-15T04:19:26;6.20;;;4.73;;
11422;SDS011;5768;51.476;7.210;2024-01-15T04:24:32;11.30;;;7.60;;
11422;SDS011;5768;51.476;7.210;2024-01-15T04:29:37;9.27;;;5.50;;
11422;SDS011;5768;51.476;7.210;2024-01-15T04:34:42;8.93;;;6.43;;
11422;SDS011;5768;51.476;7.210;2024-01-15T04:39:45;11.03;;;8.33;;
11422;SDS011;5768;51.476;7.210;2024-01-15T04:44:47;11.57;;;9.30;;
11422;SDS011;5768;51.476;7.210;2024-01-15T04:49:50;12.87;;;9.50;;
11422;SDS011;5768;51.476;7.210;2024-01-15T04:54:53;9.10;;;7.77;;
11422;SDS011;5768;51.476;7.210;2024-01-15T04:59:56;11.23;;;8.57;;
11422;SDS011;5768;51.476;7.210;2024-01-15T05:04:58;10.57;;;9.27;;
11422;SDS011;5768;51.476;7.210;2024-01-15T05:10:04;10.67;;;9.33;;
11422;SDS011;5768;51.476;7.210;2024-01-15T05:15:08;12.60;;;8.97;;
11422;SDS011;5768;51.476;7.210;2024-01-15T05:20:11;9.40;;;7.97;;
11422;SDS011;5768;51.476;7.210;2024-01-15T05:25:14;9.83;;;7.50;;
11422;SDS011;5768;51.476;7.210;2024-01-15T05:30:17;9.27;;;7.47;;
11422;SDS011;5768;51.476;7.210;2024-01-15T05:35:21;8.13;;;6.37;;
11422;SDS011;5768;51.476;7.210;2024-01-15T05:40:24;11.53;;;8.87;;
11422;SDS011;5768;51.476;7.210;2024-01-15T05:45:26;10.77;;;8.93;;
11422;SDS011;5768;51.476;7.210;2024-01-15T05:50:28;12.43;;;9.00;;
11422;SDS011;5768;51.476;7.210;2024-01-15T05:55:32;12.73;;;8.67;;
11422;SDS011;5768;51.476;7.210;2024-01-15T06:00:34;9.07;;;6.97;;
11422;SDS011;5768;51.476;7.210;2024-01-15T06:05:38;9.03;;;8.03;;
11422;SDS011;5768;51.476;7.210;2024-01-15T06:10:42;12.33;;;9.67;;
11422;SDS011;5768;51.476;7.210;2024-01-15T06:15:47;8.67;;;5.50;;
11422;SDS011;5768;51.476;7.210;2024-01-15T06:20:49;8.67;;;6.90;;
11422;SDS011;5768;51.476;7.210;2024-01-15T06:25:53;7.47;;;4.33;;
11422;SDS011;5768;51.476;7.210;2024-01-15T06:30:55;6.17;;;4.00;;
11422;SDS011;5768;51.476;7.210;2024-01-15T06:35:58;8.23;;;5.70;;
11422;SDS011;5768;51.476;7.210;2024-01-15T06:41:02;7.70;;;5.00;;
11422;SDS011;5768;51.476;7.210;2024-01-15T06:46:05;10.53;;;8.07;;
11422;SDS011;5768;51.476;7.210;2024-01-15T06:51:07;5.00;;;3.40;;
11422;SDS011;5768;51.476;7.210;2024-01-15T06:56:10;7.73;;;5.73;;
11422;SDS011;5768;51.476;7.210;2024-01-15T07:01:12;7.10;;;5.97;;
11422;SDS011;5768;51.476;7.210;2024-01-15T07:06:15;12.67;;;7.73;;
11422;SDS011;5768;51.476;7.210;2024-01-15T07:11:18;5.93;;;5.30;;
11422;SDS011;5768;51.476;7.210;2024-01-15T07:16:21;5.87;;;3.80;;
11422;SDS011;5768;51.476;7.210;2024-01-15T07:21:23;9.30;;;4.57;;
11422;SDS011;5768;51.476;7.210;2024-01-15T07:26:26;5.77;;;4.17;;
11422;SDS011;5768;51.476;7.210;2024-01-15T07:31:28;9.43;;;7.37;;
11422;SDS011;5768;51.476;7.210;2024-01-15T07:36:31;2.83;;;2.60;;
11422;SDS011;5768;51.476;7.210;2024-01-15T07:41:34;2.77;;;1.90;;
11422;SDS011;5768;51.476;7.210;2024-01-15T07:46:37;3.10;;;2.80;;
11422;SDS011;5768;51.476;7.210;2024-01-15T07:51:39;4.50;;;3.20;;
11422;SDS011;5768;51.476;7.210;2024-01-15T07:56:54;2.77;;;2.57;;
11422;SDS011;5768;51.476;7.210;2024-01-15T08:01:58;4.80;;;2.47;;
11422;SDS011;5768;51.476;7.210;2024-01-15T08:07:03;1.97;;;1.77;;
11422;SDS011;5768;51.476;7.210;2024-01-15T08:12:07;2.87;;;2.57;;
11422;SDS011;5768;51.476;7.210;2024-01-15T08:17:13;5.23;;;3.33;;
11422;SDS011;5768;51.476;7.210;2024-01-15T08:22:16;4.90;;;4.50;;
11422;SDS011;5768;51.476;7.210;2024-01-15T08:27:20;5.50;;;4.57;;
11422;SDS011;5768;51.476;7.210;2024-01-15T08:32:22;6.60;;;5.93;;
11422;SDS011;5768;51.476;7.210;2024-01-15T08:37:24;7.10;;;6.40;;
11422;SDS011;5768;51.476;7.210;2024-01-15T08:42:27;8.17;;;7.37;;
11422;SDS011;5768;51.476;7.210;2024-01-15T08:47:30;6.03;;;5.40;;
11422;SDS011;5768;51.476;7.210;2024-01-15T08:52:37;5.80;;;5.20;;
11422;SDS011;5768;51.476;7.210;2024-01-15T08:57:41;6.33;;;5.73;;
11422;SDS011;5768;51.476;7.210;2024-01-15T09:02:43;5.03;;;4.53;;
11422;SDS011;5768;51.476;7.210;2024-01-15T09:07:46;5.73;;;5.23;;
11422;SDS011;5768;51.476;7.210;2024-01-15T09:12:49;7.97;;;7.17;;
11422;SDS011;5768;51.476;7.210;2024-01-15T09:17:52;6.93;;;6.23;;
11422;SDS011;5768;51.476;7.210;2024-01-15T09:22:54;8.93;;;8.13;;
11422;SDS011;5768;51.476;7.210;2024-01-15T09:27:57;5.70;;;5.10;;
11422;SDS011;5768;51.476;7.210;2024-01-15T09:32:59;6.30;;;5.70;;
11422;SDS011;5768;51.476;7.210;2024-01-15T09:38:02;4.93;;;3.90;;
11422;SDS011;5768;51.476;7.210;2024-01-15T09:43:07;8.93;;;6.60;;
11422;SDS011;5768;51.476;7.210;2024-01-15T09:48:09;3.60;;;3.23;;
11422;SDS011;5768;51.476;7.210;2024-01-15T09:53:23;5.83;;;5.03;;
11422;SDS011;5768;51.476;7.210;2024-01-15T09:58:28;6.30;;;5.53;;
11422;SDS011;5768;51.476;7.210;2024-01-15T10:03:31;4.17;;;3.77;;
11422;SDS011;5768;51.476;7.210;2024-01-15T10:08:43;4.67;;;4.23;;
11422;SDS011;5768;51.476;7.210;2024-01-15T10:13:51;4.50;;;4.10;;
11422;SDS011;5768;51.476;7.210;2024-01-15T10:18:55;5.30;;;4.77;;
11422;SDS011;5768;51.476;7.210;2024-01-15T10:23:57;5.80;;;5.30;;
11422;SDS011;5768;51.476;7.210;2024-01-15T10:29:05;6.40;;;5.80;;
11422;SDS011;5768;51.476;7.210;2024-01-15T10:34:10;6.33;;;5.73;;
11422;SDS011;5768;51.476;7.210;2024-01-15T10:39:15;5.23;;;4.80;;
11422;SDS011;5768;51.476;7.210;2024-01-15T10:44:18;4.80;;;4.30;;
11422;SDS011;5768;51.476;7.210;2024-01-15T10:49:21;5.90;;;5.37;;
11422;SDS011;5768;51.476;7.210;2024-01-15T10:54:26;4.17;;;3.77;;
11422;SDS011;5768;51.476;7.210;2024-01-15T10:59:31;4.00;;;3.60;;
11422;SDS011;5768;51.476;7.210;2024-01-15T11:04:34;4.33;;;3.90;;
11422;SDS011;5768;51.476;7.210;2024-01-15T11:09:36;3.87;;;3.30;;
11422;SDS011;5768;51.476;7.210;2024-01-15T11:14:49;5.10;;;4.63;;
11422;SDS011;5768;51.476;7.210;2024-01-15T11:20:05;3.03;;;2.50;;
11422;SDS011;5768;51.476;7.210;2024-01-15T11:25:12;3.97;;;3.63;;
11422;SDS011;5768;51.476;7.210;2024-01-15T11:30:20;6.77;;;4.60;;
11422;SDS011;5768;51.476;7.210;2024-01-15T11:35:38;3.50;;;3.20;;
11422;SDS011;5768;51.476;7.210;2024-01-15T11:40:50;5.03;;;3.83;;
11422;SDS011;5768;51.476;7.210;2024-01-15T11:45:55;2.90;;;2.37;;
11422;SDS011;5768;51.476;7.210;2024-01-15T11:50:58;3.90;;;3.50;;
11422;SDS011;5768;51.476;7.210;2024-01-15T11:56:03;3.07;;;2.37;;
11422;SDS011;5768;51.476;7.210;2024-01-15T12:01:15;2.87;;;2.57;;
11422;SDS011;5768;51.476;7.210;2024-01-15T12:06:17;2.13;;;1.93;;
11422;SDS011;5768;51.476;7.210;2024-01-15T12:11:19;3.80;;;2.60;;
11422;SDS011;5768;51.476;7.210;2024-01-15T12:16:27;4.10;;;2.17;;
11422;SDS011;5768;51.476;7.210;2024-01-15T12:21:31;3.23;;;2.80;;
11422;SDS011;5768;51.476;7.210;2024-01-15T12:26:33;3.17;;;2.47;;
11422;SDS011;5768;51.476;7.210;2024-01-15T12:31:37;2.80;;;2.43;;
11422;SDS011;5768;51.476;7.210;2024-01-15T12:36:39;4.03;;;2.90;;
11422;SDS011;5768;51.476;7.210;2024-01-15T12:41:42;2.70;;;2.43;;
11422;SDS011;5768;51.476;7.210;2024-01-15T12:46:46;2.30;;;1.97;;
11422;SDS011;5768;51.476;7.210;2024-01-15T12:51:52;2.27;;;2.07;;
11422;SDS011;5768;51.476;7.210;2024-01-15T12:56:54;1.90;;;1.70;;
11422;SDS011;5768;51.476;7.210;2024-01-15T13:01:58;2.43;;;1.90;;
11422;SDS011;5768;51.476;7.210;2024-01-15T13:07:00;5.13;;;2.97;;
11422;SDS011;5768;51.476;7.210;2024-01-15T13:12:03;4.77;;;2.57;;
11422;SDS011;5768;51.476;7.210;2024-01-15T13:17:08;4.27;;;2.00;;
11422;SDS011;5768;51.476;7.210;2024-01-15T13:22:14;3.80;;;2.37;;
11422;SDS011;5768;51.476;7.210;2024-01-15T13:27:16;2.80;;;2.17;;
11422;SDS011;5768;51.476;7.210;2024-01-15T13:32:22;4.13;;;3.00;;
11422;SDS011;5768;51.476;7.210;2024-01-15T13:37:27;3.27;;;2.90;;
11422;SDS011;5768;51.476;7.210;2024-01-15T13:42:29;4.20;;;3.10;;
11422;SDS011;5768;51.476;7.210;2024-01-15T13:47:32;4.30;;;2.90;;
11422;SDS011;5768;51.476;7.210;2024-01-15T13:52:37;5.83;;;2.60;;
11422;SDS011;5768;51.476;7.210;2024-01-15T13:57:45;4.17;;;2.90;;
11422;SDS011;5768;51.476;7.210;2024-01-15T14:02:49;3.43;;;2.47;;
11422;SDS011;5768;51.476;7.210;2024-01-15T14:07:51;2.17;;;1.80;;
11422;SDS011;5768;51.476;7.210;2024-01-15T14:12:53;5.17;;;2.67;;
11422;SDS011;5768;51.476;7.210;2024-01-15T14:17:57;1.87;;;1.70;;
11422;SDS011;5768;51.476;7.210;2024-01-15T14:22:59;3.80;;;2.83;;
11422;SDS011;5768;51.476;7.210;2024-01-15T14:28:01;2.77;;;2.13;;
11422;SDS011;5768;51.476;7.210;2024-01-15T14:33:05;4.40;;;3.93;;
11422;SDS011;5768;51.476;7.210;2024-01-15T14:38:08;5.50;;;3.60;;
11422;SDS011;5768;51.476;7.210;2024-01-15T14:43:10;2.80;;;2.20;;
11422;SDS011;5768;51.476;7.210;2024-01-15T14:48:14;4.43;;;3.20;;
11422;SDS011;5768;51.476;7.210;2024-01-15T14:53:16;4.10;;;3.30;;
11422;SDS011;5768;51.476;7.210;2024-01-15T14:58:18;5.80;;;2.70;;
11422;SDS011;5768;51.476;7.210;2024-01-15T15:03:22;3.43;;;2.63;;
11422;SDS011;5768;51.476;7.210;2024-01-15T15:08:24;1.87;;;1.47;;
11422;SDS011;5768;51.476;7.210;2024-01-15T15:13:26;1.77;;;1.67;;
11422;SDS011;5768;51.476;7.210;2024-01-15T15:18:30;6.00;;;3.10;;
11422;SDS011;5768;51.476;7.210;2024-01-15T15:23:33;5.70;;;3.30;;
11422;SDS011;5768;51.476;7.210;2024-01-15T15:28:35;3.93;;;3.37;;
11422;SDS011;5768;51.476;7.210;2024-01-15T15:33:42;2.07;;;1.77;;
11422;SDS011;5768;51.476;7.210;2024-01-15T15:38:44;3.63;;;2.17;;
11422;SDS011;5768;51.476;7.210;2024-01-15T15:43:48;2.83;;;2.30;;
11422;SDS011;5768;51.476;7.210;2024-01-15T15:48:52;1.97;;;1.47;;
11422;SDS011;5768;51.476;7.210;2024-01-15T15:53:54;4.73;;;2.53;;
11422;SDS011;5768;51.476;7.210;2024-01-15T15:58:56;3.20;;;2.10;;
11422;SDS011;5768;51.476;7.210;2024-01-15T16:04:00;5.07;;;2.70;;
11422;SDS011;5768;51.476;7.210;2024-01-15T16:09:03;3.73;;;3.17;;
11422;SDS011;5768;51.476;7.210;2024-01-15T16:14:06;2.33;;;2.13;;
11422;SDS011;5768;51.476;7.210;2024-01-15T16:19:12;5.00;;;3.30;;
11422;SDS011;5768;51.476;7.210;2024-01-15T16:24:17;3.47;;;3.17;;
11422;SDS011;5768;51.476;7.210;2024-01-15T16:29:19;3.93;;;3.57;;
11422;SDS011;5768;51.476;7.210;2024-01-15T16:34:24;2.70;;;2.50;;
11422;SDS011;5768;51.476;7.210;2024-01-15T16:39:26;3.53;;;3.07;;
11422;SDS011;5768;51.476;7.210;2024-01-15T16:44:28;4.90;;;4.40;;
11422;SDS011;5768;51.476;7.210;2024-01-15T16:49:34;3.90;;;3.50;;
11422;SDS011;5768;51.476;7.210;2024-01-15T16:54:37;5.03;;;4.53;;
11422;SDS011;5768;51.476;7.210;2024-01-15T16:59:40;5.57;;;5.00;;
11422;SDS011;5768;51.476;7.210;2024-01-15T17:04:43;5.97;;;5.10;;
11422;SDS011;5768;51.476;7.210;2024-01-15T17:09:46;6.30;;;4.10;;
11422;SDS011;5768;51.476;7.210;2024-01-15T17:14:48;6.93;;;5.20;;
11422;SDS011;5768;51.476;7.210;2024-01-15T17:19:52;4.20;;;3.47;;
11422;SDS011;5768;51.476;7.210;2024-01-15T17:24:55;4.07;;;2.50;;
11422;SDS011;5768;51.476;7.210;2024-01-15T17:29:57;5.33;;;3.80;;
11422;SDS011;5768;51.476;7.210;2024-01-15T17:35:01;5.97;;;3.87;;
11422;SDS011;5768;51.476;7.210;2024-01-15T17:40:04;4.20;;;3.80;;
11422;SDS011;5768;51.476;7.210;2024-01-15T17:45:08;3.87;;;2.73;;
11422;SDS011;5768;51.476;7.210;2024-01-15T17:50:12;5.23;;;3.00;;
11422;SDS011;5768;51.476;7.210;2024-01-15T17:55:14;4.13;;;2.40;;
11422;SDS011;5768;51.476;7.210;2024-01-15T18:00:17;3.50;;;3.10;;
11422;SDS011;5768;51.476;7.210;2024-01-15T18:05:21;6.10;;;4.30;;
11422;SDS011;5768;51.476;7.210;2024-01-15T18:10:24;3.93;;;3.60;;
11422;SDS011;5768;51.476;7.210;2024-01-15T18:15:27;6.93;;;3.67;;
11422;SDS011;5768;51.476;7.210;2024-01-15T18:20:30;5.83;;;3.33;;
11422;SDS011;5768;51.476;7.210;2024-01-15T18:25:32;5.67;;;3.20;;
11422;SDS011;5768;51.476;7.210;2024-01-15T18:30:38;6.50;;;3.13;;
11422;SDS011;5768;51.476;7.210;2024-01-15T18:35:42;4.50;;;3.20;;
11422;SDS011;5768;51.476;7.210;2024-01-15T18:40:45;4.03;;;2.77;;
11422;SDS011;5768;51.476;7.210;2024-01-15T18:45:48;5.67;;;2.80;;
11422;SDS011;5768;51.476;7.210;2024-01-15T18:50:51;5.07;;;3.33;;
11422;SDS011;5768;51.476;7.210;2024-01-15T18:55:53;6.90;;;4.70;;
11422;SDS011;5768;51.476;7.210;2024-01-15T19:00:57;7.23;;;5.23;;
11422;SDS011;5768;51.476;7.210;2024-01-15T19:06:01;6.97;;;4.17;;
11422;SDS011;5768;51.476;7.210;2024-01-15T19:11:04;8.93;;;5.10;;
11422;SDS011;5768;51.476;7.210;2024-01-15T19:16:06;8.13;;;4.60;;
11422;SDS011;5768;51.476;7.210;2024-01-15T19:21:10;5.60;;;2.60;;
11422;SDS011;5768;51.476;7.210;2024-01-15T19:26:17;7.07;;;4.70;;
11422;SDS011;5768;51.476;7.210;2024-01-15T19:31:20;4.90;;;3.50;;
11422;SDS011;5768;51.476;7.210;2024-01-15T19:36:24;6.80;;;4.73;;
11422;SDS011;5768;51.476;7.210;2024-01-15T19:41:27;5.17;;;3.87;;
11422;SDS011;5768;51.476;7.210;2024-01-15T19:46:29;6.50;;;4.13;;
11422;SDS011;5768;51.476;7.210;2024-01-15T19:51:35;4.60;;;2.70;;
11422;SDS011;5768;51.476;7.210;2024-01-15T19:56:38;5.47;;;2.83;;
11422;SDS011;5768;51.476;7.210;2024-01-15T20:01:54;6.33;;;3.80;;
11422;SDS011;5768;51.476;7.210;2024-01-15T20:06:57;5.60;;;2.90;;
11422;SDS011;5768;51.476;7.210;2024-01-15T20:12:00;5.63;;;3.10;;
11422;SDS011;5768;51.476;7.210;2024-01-15T20:17:05;2.07;;;1.67;;
11422;SDS011;5768;51.476;7.210;2024-01-15T20:22:09;3.87;;;2.27;;
11422;SDS011;5768;51.476;7.210;2024-01-15T20:27:12;6.90;;;3.20;;
11422;SDS011;5768;51.476;7.210;2024-01-15T20:32:16;7.27;;;3.20;;
11422;SDS011;5768;51.476;7.210;2024-01-15T20:37:21;4.90;;;2.80;;
11422;SDS011;5768;51.476;7.210;2024-01-15T20:42:24;5.20;;;2.67;;
11422;SDS011;5768;51.476;7.210;2024-01-15T20:47:27;5.50;;;3.07;;
11422;SDS011;5768;51.476;7.210;2024-01-15T20:52:32;4.87;;;2.83;;
11422;SDS011;5768;51.476;7.210;2024-01-15T20:57:35;3.30;;;2.67;;
11422;SDS011;5768;51.476;7.210;2024-01-15T21:02:40;5.10;;;3.20;;
11422;SDS011;5768;51.476;7.210;2024-01-15T21:07:43;6.60;;;4.57;;
11422;SDS011;5768;51.476;7.210;2024-01-15T21:12:46;4.90;;;3.10;;
11422;SDS011;5768;51.476;7.210;2024-01-15T21:17:48;4.63;;;3.40;;
11422;SDS011;5768;51.476;7.210;2024-01-15T21:22:52;5.57;;;3.50;;
11422;SDS011;5768;51.476;7.210;2024-01-15T21:27:55;3.10;;;2.80;;
11422;SDS011;5768;51.476;7.210;2024-01-15T21:32:57;4.63;;;3.40;;
11422;SDS011;5768;51.476;7.210;2024-01-15T21:38:01;9.47;;;4.13;;
11422;SDS011;5768;51.476;7.210;2024-01-15T21:43:04;5.27;;;4.40;;
11422;SDS011;5768;51.476;7.210;2024-01-15T21:48:06;4.43;;;3.40;;
11422;SDS011;5768;51.476;7.210;2024-01-15T21:53:10;8.07;;;4.40;;
11422;SDS011;5768;51.476;7.210;2024-01-15T21:58:16;7.37;;;4.70;;
11422;SDS011;5768;51.476;7.210;2024-01-15T22:03:19;8.00;;;4.60;;
11422;SDS011;5768;51.476;7.210;2024-01-15T22:08:24;6.07;;;3.80;;
11422;SDS011;5768;51.476;7.210;2024-01-15T22:13:27;2.77;;;2.00;;
11422;SDS011;5768;51.476;7.210;2024-01-15T22:18:29;5.10;;;3.57;;
11422;SDS011;5768;51.476;7.210;2024-01-15T22:23:33;5.67;;;4.90;;
11422;SDS011;5768;51.476;7.210;2024-01-15T22:28:35;3.27;;;2.67;;
11422;SDS011;5768;51.476;7.210;2024-01-15T22:33:37;6.17;;;4.10;;
11422;SDS011;5768;51.476;7.210;2024-01-15T22:38:42;4.67;;;3.20;;
11422;SDS011;5768;51.476;7.210;2024-01-15T22:43:44;6.63;;;4.73;;
11422;SDS011;5768;51.476;7.210;2024-01-15T22:48:47;6.23;;;4.60;;
11422;SDS011;5768;51.476;7.210;2024-01-15T22:53:50;5.30;;;3.50;;
11422;SDS011;5768;51.476;7.210;2024-01-15T22:58:53;4.80;;;3.70;;
11422;SDS011;5768;51.476;7.210;2024-01-15T23:03:55;6.07;;;3.00;;
11422;SDS011;5768;51.476;7.210;2024-01-15T23:08:59;5.93;;;4.73;;
11422;SDS011;5768;51.476;7.210;2024-01-15T23:14:01;6.50;;;5.87;;
11422;SDS011;5768;51.476;7.210;2024-01-15T23:19:04;7.37;;;5.60;;
11422;SDS011;5768;51.476;7.210;2024-01-15T23:24:07;8.63;;;6.20;;
11422;SDS011;5768;51.476;7.210;2024-01-15T23:29:10;6.47;;;4.47;;
11422;SDS011;5768;51.476;7.210;2024-01-15T23:34:12;5.53;;;3.63;;
11422;SDS011;5768;51.476;7.210;2024-01-15T23:39:16;7.33;;;4.63;;
11422;SDS011;5768;51.476;7.210;2024-01-15T23:44:18;5.67;;;4.27;;
11422;SDS011;5768;51.476;7.210;2024-01-15T23:49:21;9.00;;;5.90;;
11422;SDS011;5768;51.476;7.210;2024-01-15T23:54:25;9.17;;;5.27;;
11422;SDS011;5768;51.476;7.210;2024-01-15T23:59:27;6.97;;;5.60;;
